sensor_id;sensor_type;location;lat;lon;timestamp;pressure;altitude;pressure_sealevel;temperature
41940;BMP180;23057;48.554;14.454;2023-05-16T00:00:27;93357.00;;;15.20
41940;BMP180;23057;48.554;14.454;2023-05-16T00:02:58;93358.00;;;15.20
41940;BMP180;23057;48.554;14.454;2023-05-16T00:05:29;93359.00;;;15.20
41940;BMP180;23057;48.554;14.454;2023-05-16T00:08:00;93354.00;;;15.20
41940;BMP180;23057;48.554;14.454;2023-05-16T00:10:31;93350.00;;;15.10
41940;BMP180;23057;48.554;14.454;2023-05-16T00:13:02;93351.00;;;15.10
41940;BMP180;23057;48.554;14.454;2023-05-16T00:15:33;93341.00;;;15.10
41940;BMP180;23057;48.554;14.454;2023-05-16T00:18:04;93340.00;;;15.10
41940;BMP180;23057;48.554;14.454;2023-05-16T00:20:35;93336.00;;;15.10
41940;BMP180;23057;48.554;14.454;2023-05-16T00:23:07;93341.00;;;15.10
41940;BMP180;23057;48.554;14.454;2023-05-16T00:25:38;93337.00;;;15.10
41940;BMP180;23057;48.554;14.454;2023-05-16T00:28:08;93333.00;;;15.20
41940;BMP180;23057;48.554;14.454;2023-05-16T00:30:39;93330.00;;;15.20
41940;BMP180;23057;48.554;14.454;2023-05-16T00:33:10;93332.00;;;15.20
41940;BMP180;23057;48.554;14.454;2023-05-16T00:35:41;93325.00;;;15.20
41940;BMP180;23057;48.554;14.454;2023-05-16T00:38:11;93329.00;;;15.20
41940;BMP180;23057;48.554;14.454;2023-05-16T00:40:42;93322.00;;;15.20
41940;BMP180;23057;48.554;14.454;2023-05-16T00:43:13;93320.00;;;15.20
41940;BMP180;23057;48.554;14.454;2023-05-16T00:45:44;93322.00;;;15.30
41940;BMP180;23057;48.554;14.454;2023-05-16T00:48:15;93314.00;;;15.20
41940;BMP180;23057;48.554;14.454;2023-05-16T00:50:46;93319.00;;;15.20
41940;BMP180;23057;48.554;14.454;2023-05-16T00:53:17;93316.00;;;15.20
41940;BMP180;23057;48.554;14.454;2023-05-16T00:55:48;93313.00;;;15.20
41940;BMP180;23057;48.554;14.454;2023-05-16T00:58:20;93310.00;;;15.20
41940;BMP180;23057;48.554;14.454;2023-05-16T01:00:52;93311.00;;;15.10
41940;BMP180;23057;48.554;14.454;2023-05-16T01:03:23;93306.00;;;15.10
41940;BMP180;23057;48.554;14.454;2023-05-16T01:05:54;93304.00;;;15.10
41940;BMP180;23057;48.554;14.454;2023-05-16T01:08:25;93303.00;;;15.10
41940;BMP180;23057;48.554;14.454;2023-05-16T01:17:29;93311.00;;;15.10
41940;BMP180;23057;48.554;14.454;2023-05-16T01:20:31;93309.00;;;15.10
41940;BMP180;23057;48.554;14.454;2023-05-16T01:26:21;93304.00;;;15.10
41940;BMP180;23057;48.554;14.454;2023-05-16T01:28:54;93296.00;;;15.10
41940;BMP180;23057;48.554;14.454;2023-05-16T01:31:25;93298.00;;;15.20
41940;BMP180;23057;48.554;14.454;2023-05-16T01:33:56;93292.00;;;15.10
41940;BMP180;23057;48.554;14.454;2023-05-16T01:36:52;93294.00;;;15.10
41940;BMP180;23057;48.554;14.454;2023-05-16T01:39:40;93301.00;;;15.10
41940;BMP180;23057;48.554;14.454;2023-05-16T01:42:18;93298.00;;;15.10
41940;BMP180;23057;48.554;14.454;2023-05-16T01:48:12;93292.00;;;15.00
41940;BMP180;23057;48.554;14.454;2023-05-16T01:50:53;93299.00;;;15.00
41940;BMP180;23057;48.554;14.454;2023-05-16T01:53:36;93302.00;;;15.00
41940;BMP180;23057;48.554;14.454;2023-05-16T01:56:10;93295.00;;;15.00
41940;BMP180;23057;48.554;14.454;2023-05-16T01:58:47;93298.00;;;14.90
41940;BMP180;23057;48.554;14.454;2023-05-16T02:01:20;93290.00;;;14.90
41940;BMP180;23057;48.554;14.454;2023-05-16T02:03:52;93299.00;;;14.90
41940;BMP180;23057;48.554;14.454;2023-05-16T02:06:23;93306.00;;;14.90
41940;BMP180;23057;48.554;14.454;2023-05-16T02:08:55;93300.00;;;14.90
41940;BMP180;23057;48.554;14.454;2023-05-16T02:11:26;93303.00;;;14.90
41940;BMP180;23057;48.554;14.454;2023-05-16T02:13:56;93307.00;;;14.90
41940;BMP180;23057;48.554;14.454;2023-05-16T02:16:29;93306.00;;;14.90
41940;BMP180;23057;48.554;14.454;2023-05-16T02:19:00;93305.00;;;14.90
41940;BMP180;23057;48.554;14.454;2023-05-16T02:21:31;93307.00;;;14.90
41940;BMP180;23057;48.554;14.454;2023-05-16T02:24:02;93297.00;;;14.90
41940;BMP180;23057;48.554;14.454;2023-05-16T02:26:33;93297.00;;;14.90
41940;BMP180;23057;48.554;14.454;2023-05-16T02:29:04;93301.00;;;14.90
41940;BMP180;23057;48.554;14.454;2023-05-16T02:31:35;93300.00;;;14.80
41940;BMP180;23057;48.554;14.454;2023-05-16T02:34:06;93310.00;;;14.80
41940;BMP180;23057;48.554;14.454;2023-05-16T02:36:37;93303.00;;;14.80
41940;BMP180;23057;48.554;14.454;2023-05-16T02:39:07;93310.00;;;14.80
41940;BMP180;23057;48.554;14.454;2023-05-16T02:41:39;93306.00;;;14.70
41940;BMP180;23057;48.554;14.454;2023-05-16T02:44:10;93305.00;;;14.70
41940;BMP180;23057;48.554;14.454;2023-05-16T02:46:41;93307.00;;;14.70
41940;BMP180;23057;48.554;14.454;2023-05-16T02:49:12;93308.00;;;14.70
41940;BMP180;23057;48.554;14.454;2023-05-16T02:51:42;93303.00;;;14.70
41940;BMP180;23057;48.554;14.454;2023-05-16T02:54:13;93305.00;;;14.70
41940;BMP180;23057;48.554;14.454;2023-05-16T02:56:44;93310.00;;;14.70
41940;BMP180;23057;48.554;14.454;2023-05-16T02:59:15;93307.00;;;14.70
41940;BMP180;23057;48.554;14.454;2023-05-16T03:01:45;93298.00;;;14.70
41940;BMP180;23057;48.554;14.454;2023-05-16T03:04:17;93294.00;;;14.60
41940;BMP180;23057;48.554;14.454;2023-05-16T03:06:47;93290.00;;;14.60
41940;BMP180;23057;48.554;14.454;2023-05-16T03:09:18;93292.00;;;14.60
41940;BMP180;23057;48.554;14.454;2023-05-16T03:11:49;93281.00;;;14.60
41940;BMP180;23057;48.554;14.454;2023-05-16T03:14:20;93289.00;;;14.60
41940;BMP180;23057;48.554;14.454;2023-05-16T03:16:51;93295.00;;;14.60
41940;BMP180;23057;48.554;14.454;2023-05-16T03:19:22;93294.00;;;14.60
41940;BMP180;23057;48.554;14.454;2023-05-16T03:21:52;93289.00;;;14.60
41940;BMP180;23057;48.554;14.454;2023-05-16T03:24:23;93290.00;;;14.60
41940;BMP180;23057;48.554;14.454;2023-05-16T03:26:54;93292.00;;;14.60
41940;BMP180;23057;48.554;14.454;2023-05-16T03:29:25;93293.00;;;14.50
41940;BMP180;23057;48.554;14.454;2023-05-16T03:31:56;93294.00;;;14.50
41940;BMP180;23057;48.554;14.454;2023-05-16T03:34:27;93294.00;;;14.50
41940;BMP180;23057;48.554;14.454;2023-05-16T03:36:57;93299.00;;;14.50
41940;BMP180;23057;48.554;14.454;2023-05-16T03:39:28;93298.00;;;14.40
41940;BMP180;23057;48.554;14.454;2023-05-16T03:41:59;93305.00;;;14.40
41940;BMP180;23057;48.554;14.454;2023-05-16T03:44:30;93292.00;;;14.40
41940;BMP180;23057;48.554;14.454;2023-05-16T03:47:01;93287.00;;;14.40
41940;BMP180;23057;48.554;14.454;2023-05-16T03:49:31;93294.00;;;14.40
41940;BMP180;23057;48.554;14.454;2023-05-16T03:52:03;93295.00;;;14.50
41940;BMP180;23057;48.554;14.454;2023-05-16T03:54:35;93282.00;;;14.50
41940;BMP180;23057;48.554;14.454;2023-05-16T03:57:05;93290.00;;;14.50
41940;BMP180;23057;48.554;14.454;2023-05-16T03:59:36;93283.00;;;14.50
41940;BMP180;23057;48.554;14.454;2023-05-16T04:02:08;93285.00;;;14.50
41940;BMP180;23057;48.554;14.454;2023-05-16T04:04:39;93278.00;;;14.50
41940;BMP180;23057;48.554;14.454;2023-05-16T04:07:09;93278.00;;;14.50
41940;BMP180;23057;48.554;14.454;2023-05-16T04:09:40;93274.00;;;14.50
41940;BMP180;23057;48.554;14.454;2023-05-16T04:12:11;93272.00;;;14.40
41940;BMP180;23057;48.554;14.454;2023-05-16T04:14:42;93270.00;;;14.40
41940;BMP180;23057;48.554;14.454;2023-05-16T04:17:13;93274.00;;;14.40
41940;BMP180;23057;48.554;14.454;2023-05-16T04:19:44;93279.00;;;14.40
41940;BMP180;23057;48.554;14.454;2023-05-16T04:22:14;93278.00;;;14.50
41940;BMP180;23057;48.554;14.454;2023-05-16T04:24:46;93274.00;;;14.50
41940;BMP180;23057;48.554;14.454;2023-05-16T04:27:16;93285.00;;;14.50
41940;BMP180;23057;48.554;14.454;2023-05-16T04:29:47;93285.00;;;14.40
41940;BMP180;23057;48.554;14.454;2023-05-16T04:32:18;93278.00;;;14.40
41940;BMP180;23057;48.554;14.454;2023-05-16T04:34:49;93291.00;;;14.40
41940;BMP180;23057;48.554;14.454;2023-05-16T04:37:22;93292.00;;;14.40
41940;BMP180;23057;48.554;14.454;2023-05-16T04:39:53;93287.00;;;14.50
41940;BMP180;23057;48.554;14.454;2023-05-16T04:42:24;93279.00;;;14.60
41940;BMP180;23057;48.554;14.454;2023-05-16T04:44:54;93277.00;;;14.50
41940;BMP180;23057;48.554;14.454;2023-05-16T04:47:25;93279.00;;;14.50
41940;BMP180;23057;48.554;14.454;2023-05-16T04:49:56;93279.00;;;14.50
41940;BMP180;23057;48.554;14.454;2023-05-16T04:52:27;93270.00;;;14.50
41940;BMP180;23057;48.554;14.454;2023-05-16T04:54:57;93276.00;;;14.50
41940;BMP180;23057;48.554;14.454;2023-05-16T04:57:29;93280.00;;;14.60
41940;BMP180;23057;48.554;14.454;2023-05-16T05:00:00;93273.00;;;14.70
41940;BMP180;23057;48.554;14.454;2023-05-16T05:02:31;93276.00;;;14.80
41940;BMP180;23057;48.554;14.454;2023-05-16T05:05:03;93265.00;;;14.90
41940;BMP180;23057;48.554;14.454;2023-05-16T05:07:34;93276.00;;;15.00
41940;BMP180;23057;48.554;14.454;2023-05-16T05:10:05;93273.00;;;15.00
41940;BMP180;23057;48.554;14.454;2023-05-16T05:12:37;93281.00;;;15.10
41940;BMP180;23057;48.554;14.454;2023-05-16T05:15:08;93284.00;;;15.20
41940;BMP180;23057;48.554;14.454;2023-05-16T05:17:39;93288.00;;;15.30
41940;BMP180;23057;48.554;14.454;2023-05-16T05:20:10;93288.00;;;15.50
41940;BMP180;23057;48.554;14.454;2023-05-16T05:22:41;93281.00;;;15.60
41940;BMP180;23057;48.554;14.454;2023-05-16T05:25:13;93283.00;;;15.80
41940;BMP180;23057;48.554;14.454;2023-05-16T05:27:44;93275.00;;;16.00
41940;BMP180;23057;48.554;14.454;2023-05-16T05:30:14;93272.00;;;16.30
41940;BMP180;23057;48.554;14.454;2023-05-16T05:32:45;93271.00;;;16.50
41940;BMP180;23057;48.554;14.454;2023-05-16T05:35:16;93258.00;;;16.80
41940;BMP180;23057;48.554;14.454;2023-05-16T05:37:47;93263.00;;;17.00
41940;BMP180;23057;48.554;14.454;2023-05-16T05:40:18;93258.00;;;17.30
41940;BMP180;23057;48.554;14.454;2023-05-16T05:42:48;93259.00;;;17.60
41940;BMP180;23057;48.554;14.454;2023-05-16T05:45:19;93267.00;;;17.90
41940;BMP180;23057;48.554;14.454;2023-05-16T05:47:50;93260.00;;;18.20
41940;BMP180;23057;48.554;14.454;2023-05-16T05:50:21;93269.00;;;18.40
41940;BMP180;23057;48.554;14.454;2023-05-16T05:52:53;93266.00;;;18.60
41940;BMP180;23057;48.554;14.454;2023-05-16T05:55:24;93259.00;;;18.70
41940;BMP180;23057;48.554;14.454;2023-05-16T05:57:55;93262.00;;;18.60
41940;BMP180;23057;48.554;14.454;2023-05-16T06:00:26;93246.00;;;18.60
41940;BMP180;23057;48.554;14.454;2023-05-16T06:02:58;93251.00;;;18.60
41940;BMP180;23057;48.554;14.454;2023-05-16T06:05:29;93247.00;;;18.50
41940;BMP180;23057;48.554;14.454;2023-05-16T06:08:00;93254.00;;;18.50
41940;BMP180;23057;48.554;14.454;2023-05-16T06:10:30;93264.00;;;18.60
41940;BMP180;23057;48.554;14.454;2023-05-16T06:13:01;93261.00;;;18.60
41940;BMP180;23057;48.554;14.454;2023-05-16T06:15:32;93269.00;;;18.60
41940;BMP180;23057;48.554;14.454;2023-05-16T06:18:03;93279.00;;;18.60
41940;BMP180;23057;48.554;14.454;2023-05-16T06:20:34;93286.00;;;18.70
41940;BMP180;23057;48.554;14.454;2023-05-16T06:23:04;93275.00;;;18.70
41940;BMP180;23057;48.554;14.454;2023-05-16T06:25:35;93279.00;;;18.70
41940;BMP180;23057;48.554;14.454;2023-05-16T06:28:06;93282.00;;;18.70
41940;BMP180;23057;48.554;14.454;2023-05-16T06:30:36;93296.00;;;18.80
41940;BMP180;23057;48.554;14.454;2023-05-16T06:33:07;93286.00;;;18.90
41940;BMP180;23057;48.554;14.454;2023-05-16T06:35:38;93278.00;;;19.10
41940;BMP180;23057;48.554;14.454;2023-05-16T06:38:09;93289.00;;;19.10
41940;BMP180;23057;48.554;14.454;2023-05-16T06:40:40;93289.00;;;19.20
41940;BMP180;23057;48.554;14.454;2023-05-16T06:43:11;93299.00;;;19.40
41940;BMP180;23057;48.554;14.454;2023-05-16T06:45:43;93304.00;;;19.50
41940;BMP180;23057;48.554;14.454;2023-05-16T06:48:14;93312.00;;;19.60
41940;BMP180;23057;48.554;14.454;2023-05-16T06:50:48;93308.00;;;19.50
41940;BMP180;23057;48.554;14.454;2023-05-16T06:53:21;93317.00;;;19.50
41940;BMP180;23057;48.554;14.454;2023-05-16T06:55:52;93324.00;;;19.40
41940;BMP180;23057;48.554;14.454;2023-05-16T06:58:22;93312.00;;;19.40
41940;BMP180;23057;48.554;14.454;2023-05-16T07:00:53;93310.00;;;19.40
41940;BMP180;23057;48.554;14.454;2023-05-16T07:03:24;93310.00;;;19.40
41940;BMP180;23057;48.554;14.454;2023-05-16T07:05:55;93321.00;;;19.50
41940;BMP180;23057;48.554;14.454;2023-05-16T07:08:26;93322.00;;;19.50
41940;BMP180;23057;48.554;14.454;2023-05-16T07:10:57;93319.00;;;19.60
41940;BMP180;23057;48.554;14.454;2023-05-16T07:13:28;93310.00;;;19.60
41940;BMP180;23057;48.554;14.454;2023-05-16T07:15:59;93315.00;;;19.60
41940;BMP180;23057;48.554;14.454;2023-05-16T07:18:29;93315.00;;;19.70
41940;BMP180;23057;48.554;14.454;2023-05-16T07:21:00;93315.00;;;19.90
41940;BMP180;23057;48.554;14.454;2023-05-16T07:23:31;93321.00;;;20.00
41940;BMP180;23057;48.554;14.454;2023-05-16T07:26:02;93318.00;;;20.10
41940;BMP180;23057;48.554;14.454;2023-05-16T07:28:33;93320.00;;;20.10
41940;BMP180;23057;48.554;14.454;2023-05-16T07:31:04;93321.00;;;20.20
41940;BMP180;23057;48.554;14.454;2023-05-16T07:33:36;93316.00;;;20.30
41940;BMP180;23057;48.554;14.454;2023-05-16T07:36:07;93313.00;;;20.30
41940;BMP180;23057;48.554;14.454;2023-05-16T07:38:38;93307.00;;;20.30
41940;BMP180;23057;48.554;14.454;2023-05-16T07:41:10;93307.00;;;20.40
41940;BMP180;23057;48.554;14.454;2023-05-16T07:43:41;93308.00;;;20.40
41940;BMP180;23057;48.554;14.454;2023-05-16T07:46:12;93291.00;;;20.40
41940;BMP180;23057;48.554;14.454;2023-05-16T07:48:43;93298.00;;;20.50
41940;BMP180;23057;48.554;14.454;2023-05-16T07:51:14;93294.00;;;20.50
41940;BMP180;23057;48.554;14.454;2023-05-16T07:53:45;93294.00;;;20.50
41940;BMP180;23057;48.554;14.454;2023-05-16T07:56:16;93301.00;;;20.50
41940;BMP180;23057;48.554;14.454;2023-05-16T07:58:47;93303.00;;;20.50
41940;BMP180;23057;48.554;14.454;2023-05-16T08:01:18;93301.00;;;20.40
41940;BMP180;23057;48.554;14.454;2023-05-16T08:03:49;93308.00;;;20.40
41940;BMP180;23057;48.554;14.454;2023-05-16T08:06:22;93305.00;;;20.40
41940;BMP180;23057;48.554;14.454;2023-05-16T08:08:53;93306.00;;;20.30
41940;BMP180;23057;48.554;14.454;2023-05-16T08:11:24;93314.00;;;20.30
41940;BMP180;23057;48.554;14.454;2023-05-16T08:13:55;93327.00;;;20.20
41940;BMP180;23057;48.554;14.454;2023-05-16T08:16:25;93321.00;;;20.20
41940;BMP180;23057;48.554;14.454;2023-05-16T08:18:56;93324.00;;;20.20
41940;BMP180;23057;48.554;14.454;2023-05-16T08:21:27;93330.00;;;20.20
41940;BMP180;23057;48.554;14.454;2023-05-16T08:23:58;93337.00;;;20.10
41940;BMP180;23057;48.554;14.454;2023-05-16T08:26:29;93339.00;;;20.20
41940;BMP180;23057;48.554;14.454;2023-05-16T08:28:59;93342.00;;;20.20
41940;BMP180;23057;48.554;14.454;2023-05-16T08:31:30;93338.00;;;20.30
41940;BMP180;23057;48.554;14.454;2023-05-16T08:34:01;93335.00;;;20.40
41940;BMP180;23057;48.554;14.454;2023-05-16T08:36:36;93336.00;;;20.40
41940;BMP180;23057;48.554;14.454;2023-05-16T08:39:07;93342.00;;;20.40
41940;BMP180;23057;48.554;14.454;2023-05-16T08:41:40;93343.00;;;20.40
41940;BMP180;23057;48.554;14.454;2023-05-16T08:44:11;93343.00;;;20.40
41940;BMP180;23057;48.554;14.454;2023-05-16T08:46:50;93337.00;;;20.40
41940;BMP180;23057;48.554;14.454;2023-05-16T08:49:26;93339.00;;;20.40
41940;BMP180;23057;48.554;14.454;2023-05-16T08:51:59;93342.00;;;20.40
41940;BMP180;23057;48.554;14.454;2023-05-16T08:54:33;93340.00;;;20.40
41940;BMP180;23057;48.554;14.454;2023-05-16T08:57:04;93343.00;;;20.40
41940;BMP180;23057;48.554;14.454;2023-05-16T08:59:35;93344.00;;;20.40
41940;BMP180;23057;48.554;14.454;2023-05-16T09:02:07;93346.00;;;20.40
41940;BMP180;23057;48.554;14.454;2023-05-16T09:04:39;93336.00;;;20.40
41940;BMP180;23057;48.554;14.454;2023-05-16T09:07:11;93325.00;;;20.40
41940;BMP180;23057;48.554;14.454;2023-05-16T09:09:41;93324.00;;;20.40
41940;BMP180;23057;48.554;14.454;2023-05-16T09:12:12;93308.00;;;20.30
41940;BMP180;23057;48.554;14.454;2023-05-16T09:14:43;93314.00;;;20.30
41940;BMP180;23057;48.554;14.454;2023-05-16T09:17:14;93316.00;;;20.30
41940;BMP180;23057;48.554;14.454;2023-05-16T09:19:45;93313.00;;;20.30
41940;BMP180;23057;48.554;14.454;2023-05-16T09:22:17;93308.00;;;20.30
41940;BMP180;23057;48.554;14.454;2023-05-16T09:24:48;93300.00;;;20.40
41940;BMP180;23057;48.554;14.454;2023-05-16T09:27:19;93297.00;;;20.40
41940;BMP180;23057;48.554;14.454;2023-05-16T09:29:50;93297.00;;;20.30
41940;BMP180;23057;48.554;14.454;2023-05-16T09:32:22;93289.00;;;20.30
41940;BMP180;23057;48.554;14.454;2023-05-16T09:34:54;93292.00;;;20.30
41940;BMP180;23057;48.554;14.454;2023-05-16T09:37:29;93282.00;;;20.30
41940;BMP180;23057;48.554;14.454;2023-05-16T09:40:00;93292.00;;;20.20
41940;BMP180;23057;48.554;14.454;2023-05-16T09:42:30;93288.00;;;20.20
41940;BMP180;23057;48.554;14.454;2023-05-16T09:45:01;93285.00;;;20.20
41940;BMP180;23057;48.554;14.454;2023-05-16T09:47:33;93273.00;;;20.20
41940;BMP180;23057;48.554;14.454;2023-05-16T09:50:05;93255.00;;;20.20
41940;BMP180;23057;48.554;14.454;2023-05-16T09:52:36;93258.00;;;20.20
41940;BMP180;23057;48.554;14.454;2023-05-16T09:55:08;93257.00;;;20.30
41940;BMP180;23057;48.554;14.454;2023-05-16T09:57:39;93252.00;;;20.40
41940;BMP180;23057;48.554;14.454;2023-05-16T10:00:10;93256.00;;;20.40
41940;BMP180;23057;48.554;14.454;2023-05-16T10:02:43;93239.00;;;20.40
41940;BMP180;23057;48.554;14.454;2023-05-16T10:05:14;93245.00;;;20.40
41940;BMP180;23057;48.554;14.454;2023-05-16T10:07:45;93251.00;;;20.40
41940;BMP180;23057;48.554;14.454;2023-05-16T10:10:17;93269.00;;;20.50
41940;BMP180;23057;48.554;14.454;2023-05-16T10:12:49;93265.00;;;20.60
41940;BMP180;23057;48.554;14.454;2023-05-16T10:15:21;93259.00;;;20.70
41940;BMP180;23057;48.554;14.454;2023-05-16T10:17:54;93251.00;;;20.60
41940;BMP180;23057;48.554;14.454;2023-05-16T10:20:29;93260.00;;;20.60
41940;BMP180;23057;48.554;14.454;2023-05-16T10:23:01;93269.00;;;20.60
41940;BMP180;23057;48.554;14.454;2023-05-16T10:25:39;93283.00;;;20.60
41940;BMP180;23057;48.554;14.454;2023-05-16T10:28:12;93304.00;;;20.60
41940;BMP180;23057;48.554;14.454;2023-05-16T10:30:44;93330.00;;;20.70
41940;BMP180;23057;48.554;14.454;2023-05-16T10:33:17;93333.00;;;20.70
41940;BMP180;23057;48.554;14.454;2023-05-16T10:35:49;93343.00;;;20.80
41940;BMP180;23057;48.554;14.454;2023-05-16T10:38:20;93345.00;;;20.80
41940;BMP180;23057;48.554;14.454;2023-05-16T10:40:54;93346.00;;;20.90
41940;BMP180;23057;48.554;14.454;2023-05-16T10:43:28;93340.00;;;20.90
41940;BMP180;23057;48.554;14.454;2023-05-16T10:46:06;93334.00;;;20.80
41940;BMP180;23057;48.554;14.454;2023-05-16T10:48:41;93326.00;;;20.80
41940;BMP180;23057;48.554;14.454;2023-05-16T10:53:53;93327.00;;;20.80
41940;BMP180;23057;48.554;14.454;2023-05-16T10:56:25;93307.00;;;20.80
41940;BMP180;23057;48.554;14.454;2023-05-16T10:58:56;93307.00;;;20.80
41940;BMP180;23057;48.554;14.454;2023-05-16T11:01:30;93300.00;;;20.80
41940;BMP180;23057;48.554;14.454;2023-05-16T11:04:08;93284.00;;;20.70
41940;BMP180;23057;48.554;14.454;2023-05-16T11:06:48;93294.00;;;20.70
41940;BMP180;23057;48.554;14.454;2023-05-16T11:09:23;93298.00;;;20.60
41940;BMP180;23057;48.554;14.454;2023-05-16T11:12:00;93304.00;;;20.60
41940;BMP180;23057;48.554;14.454;2023-05-16T11:14:38;93317.00;;;20.60
41940;BMP180;23057;48.554;14.454;2023-05-16T11:17:20;93322.00;;;20.70
41940;BMP180;23057;48.554;14.454;2023-05-16T11:19:57;93317.00;;;20.70
41940;BMP180;23057;48.554;14.454;2023-05-16T11:22:37;93317.00;;;20.70
41940;BMP180;23057;48.554;14.454;2023-05-16T11:25:11;93317.00;;;20.70
41940;BMP180;23057;48.554;14.454;2023-05-16T11:27:44;93311.00;;;20.60
41940;BMP180;23057;48.554;14.454;2023-05-16T11:30:17;93321.00;;;20.50
41940;BMP180;23057;48.554;14.454;2023-05-16T11:32:51;93332.00;;;20.40
41940;BMP180;23057;48.554;14.454;2023-05-16T11:35:22;93323.00;;;20.30
41940;BMP180;23057;48.554;14.454;2023-05-16T11:37:52;93318.00;;;20.20
41940;BMP180;23057;48.554;14.454;2023-05-16T11:40:23;93327.00;;;20.10
41940;BMP180;23057;48.554;14.454;2023-05-16T11:42:59;93316.00;;;20.10
41940;BMP180;23057;48.554;14.454;2023-05-16T11:45:33;93318.00;;;20.00
41940;BMP180;23057;48.554;14.454;2023-05-16T11:48:04;93315.00;;;20.00
41940;BMP180;23057;48.554;14.454;2023-05-16T11:50:35;93320.00;;;20.00
41940;BMP180;23057;48.554;14.454;2023-05-16T11:53:06;93317.00;;;19.90
41940;BMP180;23057;48.554;14.454;2023-05-16T11:55:40;93317.00;;;19.90
41940;BMP180;23057;48.554;14.454;2023-05-16T11:58:11;93317.00;;;19.90
41940;BMP180;23057;48.554;14.454;2023-05-16T12:00:49;93313.00;;;19.90
41940;BMP180;23057;48.554;14.454;2023-05-16T12:03:21;93311.00;;;19.90
41940;BMP180;23057;48.554;14.454;2023-05-16T12:05:54;93318.00;;;19.90
41940;BMP180;23057;48.554;14.454;2023-05-16T12:08:30;93316.00;;;19.90
41940;BMP180;23057;48.554;14.454;2023-05-16T12:11:01;93303.00;;;19.90
41940;BMP180;23057;48.554;14.454;2023-05-16T12:13:32;93298.00;;;20.00
41940;BMP180;23057;48.554;14.454;2023-05-16T12:16:03;93290.00;;;20.00
41940;BMP180;23057;48.554;14.454;2023-05-16T12:18:34;93294.00;;;20.00
41940;BMP180;23057;48.554;14.454;2023-05-16T12:21:08;93308.00;;;20.00
41940;BMP180;23057;48.554;14.454;2023-05-16T12:23:41;93302.00;;;20.10
41940;BMP180;23057;48.554;14.454;2023-05-16T12:26:12;93300.00;;;20.00
41940;BMP180;23057;48.554;14.454;2023-05-16T12:28:42;93311.00;;;20.00
41940;BMP180;23057;48.554;14.454;2023-05-16T12:31:19;93296.00;;;20.10
41940;BMP180;23057;48.554;14.454;2023-05-16T12:33:53;93298.00;;;20.20
41940;BMP180;23057;48.554;14.454;2023-05-16T12:36:25;93298.00;;;20.20
41940;BMP180;23057;48.554;14.454;2023-05-16T12:39:01;93293.00;;;20.30
41940;BMP180;23057;48.554;14.454;2023-05-16T12:41:39;93294.00;;;20.30
41940;BMP180;23057;48.554;14.454;2023-05-16T12:44:14;93294.00;;;20.30
41940;BMP180;23057;48.554;14.454;2023-05-16T12:46:50;93300.00;;;20.30
41940;BMP180;23057;48.554;14.454;2023-05-16T12:49:22;93302.00;;;20.20
41940;BMP180;23057;48.554;14.454;2023-05-16T12:51:55;93305.00;;;20.10
41940;BMP180;23057;48.554;14.454;2023-05-16T12:54:27;93313.00;;;20.10
41940;BMP180;23057;48.554;14.454;2023-05-16T12:56:58;93315.00;;;20.00
41940;BMP180;23057;48.554;14.454;2023-05-16T12:59:29;93319.00;;;20.00
41940;BMP180;23057;48.554;14.454;2023-05-16T13:02:00;93327.00;;;19.90
41940;BMP180;23057;48.554;14.454;2023-05-16T13:04:31;93318.00;;;19.70
41940;BMP180;23057;48.554;14.454;2023-05-16T13:07:02;93305.00;;;19.50
41940;BMP180;23057;48.554;14.454;2023-05-16T13:09:34;93307.00;;;19.40
41940;BMP180;23057;48.554;14.454;2023-05-16T13:12:05;93310.00;;;19.30
41940;BMP180;23057;48.554;14.454;2023-05-16T13:14:36;93309.00;;;19.20
41940;BMP180;23057;48.554;14.454;2023-05-16T13:17:06;93310.00;;;19.20
41940;BMP180;23057;48.554;14.454;2023-05-16T13:19:37;93303.00;;;19.10
41940;BMP180;23057;48.554;14.454;2023-05-16T13:22:08;93307.00;;;19.00
41940;BMP180;23057;48.554;14.454;2023-05-16T13:24:38;93303.00;;;19.00
41940;BMP180;23057;48.554;14.454;2023-05-16T13:27:09;93308.00;;;18.90
41940;BMP180;23057;48.554;14.454;2023-05-16T13:29:40;93306.00;;;18.90
41940;BMP180;23057;48.554;14.454;2023-05-16T13:32:11;93308.00;;;19.00
41940;BMP180;23057;48.554;14.454;2023-05-16T13:34:42;93303.00;;;19.00
41940;BMP180;23057;48.554;14.454;2023-05-16T13:37:12;93301.00;;;19.00
41940;BMP180;23057;48.554;14.454;2023-05-16T13:39:43;93301.00;;;19.00
41940;BMP180;23057;48.554;14.454;2023-05-16T13:42:14;93294.00;;;19.00
41940;BMP180;23057;48.554;14.454;2023-05-16T13:44:45;93293.00;;;19.00
41940;BMP180;23057;48.554;14.454;2023-05-16T13:47:16;93294.00;;;19.00
41940;BMP180;23057;48.554;14.454;2023-05-16T13:49:47;93295.00;;;19.10
41940;BMP180;23057;48.554;14.454;2023-05-16T13:52:18;93291.00;;;19.10
41940;BMP180;23057;48.554;14.454;2023-05-16T13:54:48;93289.00;;;19.10
41940;BMP180;23057;48.554;14.454;2023-05-16T13:57:19;93289.00;;;19.20
41940;BMP180;23057;48.554;14.454;2023-05-16T13:59:52;93289.00;;;19.10
41940;BMP180;23057;48.554;14.454;2023-05-16T14:02:23;93289.00;;;19.10
41940;BMP180;23057;48.554;14.454;2023-05-16T14:04:55;93299.00;;;19.00
41940;BMP180;23057;48.554;14.454;2023-05-16T14:07:26;93291.00;;;19.00
41940;BMP180;23057;48.554;14.454;2023-05-16T14:09:56;93287.00;;;19.00
41940;BMP180;23057;48.554;14.454;2023-05-16T14:12:27;93274.00;;;19.00
41940;BMP180;23057;48.554;14.454;2023-05-16T14:14:58;93275.00;;;19.00
41940;BMP180;23057;48.554;14.454;2023-05-16T14:17:29;93285.00;;;19.00
41940;BMP180;23057;48.554;14.454;2023-05-16T14:19:59;93277.00;;;19.00
41940;BMP180;23057;48.554;14.454;2023-05-16T14:22:30;93292.00;;;19.00
41940;BMP180;23057;48.554;14.454;2023-05-16T14:25:01;93286.00;;;19.00
41940;BMP180;23057;48.554;14.454;2023-05-16T14:27:32;93288.00;;;19.00
41940;BMP180;23057;48.554;14.454;2023-05-16T14:30:03;93277.00;;;19.10
41940;BMP180;23057;48.554;14.454;2023-05-16T14:32:35;93287.00;;;19.00
41940;BMP180;23057;48.554;14.454;2023-05-16T14:35:06;93288.00;;;19.00
41940;BMP180;23057;48.554;14.454;2023-05-16T14:37:38;93284.00;;;19.00